sensor_id;sensor_type;location;lat;lon;timestamp;P1;durP1;ratioP1;P2;durP2;ratioP2
51214;SDS011;41093;47.444;19.134;2022-07-23T00:01:15;10.15;;;8.57;;
51214;SDS011;41093;47.444;19.134;2022-07-23T00:03:41;10.32;;;8.07;;
51214;SDS011;41093;47.444;19.134;2022-07-23T00:06:07;9.90;;;8.82;;
51214;SDS011;41093;47.444;19.134;2022-07-23T00:08:32;10.73;;;8.85;;
51214;SDS011;41093;47.444;19.134;2022-07-23T00:10:58;8.68;;;7.93;;
51214;SDS011;41093;47.444;19.134;2022-07-23T00:13:25;11.57;;;9.00;;
51214;SDS011;41093;47.444;19.134;2022-07-23T00:15:51;14.05;;;9.32;;
51214;SDS011;41093;47.444;19.134;2022-07-23T00:18:17;10.18;;;8.73;;
51214;SDS011;41093;47.444;19.134;2022-07-23T00:20:43;11.77;;;8.70;;
51214;SDS011;41093;47.444;19.134;2022-07-23T00:23:09;10.82;;;8.93;;
51214;SDS011;41093;47.444;19.134;2022-07-23T00:25:35;9.65;;;8.20;;
51214;SDS011;41093;47.444;19.134;2022-07-23T00:28:01;11.40;;;8.80;;
51214;SDS011;41093;47.444;19.134;2022-07-23T00:30:27;9.88;;;8.63;;
51214;SDS011;41093;47.444;19.134;2022-07-23T00:32:57;12.13;;;8.60;;
51214;SDS011;41093;47.444;19.134;2022-07-23T00:35:29;9.02;;;8.02;;
51214;SDS011;41093;47.444;19.134;2022-07-23T00:37:56;11.07;;;8.10;;
51214;SDS011;41093;47.444;19.134;2022-07-23T00:40:23;9.85;;;7.95;;
51214;SDS011;41093;47.444;19.134;2022-07-23T00:42:49;10.15;;;8.90;;
51214;SDS011;41093;47.444;19.134;2022-07-23T00:45:15;12.15;;;9.00;;
51214;SDS011;41093;47.444;19.134;2022-07-23T00:47:41;12.27;;;8.50;;
51214;SDS011;41093;47.444;19.134;2022-07-23T00:50:08;9.20;;;8.30;;
51214;SDS011;41093;47.444;19.134;2022-07-23T00:52:35;10.15;;;9.10;;
51214;SDS011;41093;47.444;19.134;2022-07-23T00:55:01;12.02;;;9.68;;
51214;SDS011;41093;47.444;19.134;2022-07-23T00:57:29;10.77;;;8.75;;
51214;SDS011;41093;47.444;19.134;2022-07-23T00:59:55;12.45;;;8.75;;
51214;SDS011;41093;47.444;19.134;2022-07-23T01:02:21;9.00;;;8.20;;
51214;SDS011;41093;47.444;19.134;2022-07-23T01:04:47;10.85;;;9.05;;
51214;SDS011;41093;47.444;19.134;2022-07-23T01:07:13;9.77;;;8.77;;
51214;SDS011;41093;47.444;19.134;2022-07-23T01:09:39;10.25;;;9.05;;
51214;SDS011;41093;47.444;19.134;2022-07-23T01:12:05;10.07;;;8.70;;
51214;SDS011;41093;47.444;19.134;2022-07-23T01:14:32;10.98;;;8.55;;
51214;SDS011;41093;47.444;19.134;2022-07-23T01:16:57;10.30;;;9.20;;
51214;SDS011;41093;47.444;19.134;2022-07-23T01:19:23;10.88;;;8.88;;
51214;SDS011;41093;47.444;19.134;2022-07-23T01:21:50;10.00;;;8.05;;
51214;SDS011;41093;47.444;19.134;2022-07-23T01:24:17;10.93;;;9.23;;
51214;SDS011;41093;47.444;19.134;2022-07-23T01:26:46;10.32;;;8.40;;
51214;SDS011;41093;47.444;19.134;2022-07-23T01:29:13;11.57;;;8.40;;
51214;SDS011;41093;47.444;19.134;2022-07-23T01:31:40;13.43;;;9.02;;
51214;SDS011;41093;47.444;19.134;2022-07-23T01:34:06;10.48;;;9.48;;
51214;SDS011;41093;47.444;19.134;2022-07-23T01:36:35;10.63;;;7.95;;
51214;SDS011;41093;47.444;19.134;2022-07-23T01:39:02;10.93;;;8.85;;
51214;SDS011;41093;47.444;19.134;2022-07-23T01:41:29;8.88;;;7.95;;
51214;SDS011;41093;47.444;19.134;2022-07-23T01:43:55;11.98;;;9.10;;
51214;SDS011;41093;47.444;19.134;2022-07-23T01:46:21;10.45;;;8.25;;
51214;SDS011;41093;47.444;19.134;2022-07-23T01:48:47;9.25;;;8.30;;
51214;SDS011;41093;47.444;19.134;2022-07-23T01:51:14;11.32;;;9.13;;
51214;SDS011;41093;47.444;19.134;2022-07-23T01:53:40;10.52;;;8.02;;
51214;SDS011;41093;47.444;19.134;2022-07-23T01:56:06;9.65;;;8.75;;
51214;SDS011;41093;47.444;19.134;2022-07-23T01:58:32;10.30;;;8.10;;
51214;SDS011;41093;47.444;19.134;2022-07-23T02:00:58;9.63;;;8.73;;
51214;SDS011;41093;47.444;19.134;2022-07-23T02:03:24;11.13;;;8.77;;
51214;SDS011;41093;47.444;19.134;2022-07-23T02:05:50;9.82;;;8.70;;
51214;SDS011;41093;47.444;19.134;2022-07-23T02:08:16;10.63;;;9.52;;
51214;SDS011;41093;47.444;19.134;2022-07-23T02:10:42;10.00;;;8.98;;
51214;SDS011;41093;47.444;19.134;2022-07-23T02:13:09;11.23;;;9.52;;
51214;SDS011;41093;47.444;19.134;2022-07-23T02:15:34;11.18;;;8.40;;
51214;SDS011;41093;47.444;19.134;2022-07-23T02:18:00;9.52;;;8.63;;
51214;SDS011;41093;47.444;19.134;2022-07-23T02:20:26;10.15;;;9.15;;
51214;SDS011;41093;47.444;19.134;2022-07-23T02:22:52;10.75;;;9.73;;
51214;SDS011;41093;47.444;19.134;2022-07-23T02:25:18;10.27;;;9.27;;
51214;SDS011;41093;47.444;19.134;2022-07-23T02:27:44;11.57;;;9.40;;
51214;SDS011;41093;47.444;19.134;2022-07-23T02:30:09;10.20;;;9.30;;
51214;SDS011;41093;47.444;19.134;2022-07-23T02:32:36;9.70;;;8.63;;
51214;SDS011;41093;47.444;19.134;2022-07-23T02:35:02;11.23;;;9.95;;
51214;SDS011;41093;47.444;19.134;2022-07-23T02:37:29;10.35;;;9.23;;
51214;SDS011;41093;47.444;19.134;2022-07-23T02:39:55;12.10;;;9.80;;
51214;SDS011;41093;47.444;19.134;2022-07-23T02:42:21;12.20;;;9.55;;
51214;SDS011;41093;47.444;19.134;2022-07-23T02:44:48;12.07;;;9.02;;
51214;SDS011;41093;47.444;19.134;2022-07-23T02:47:17;12.88;;;9.15;;
51214;SDS011;41093;47.444;19.134;2022-07-23T02:49:43;10.50;;;8.98;;
51214;SDS011;41093;47.444;19.134;2022-07-23T02:52:08;10.98;;;9.43;;
51214;SDS011;41093;47.444;19.134;2022-07-23T02:54:37;11.80;;;10.02;;
51214;SDS011;41093;47.444;19.134;2022-07-23T02:57:03;10.93;;;9.45;;
51214;SDS011;41093;47.444;19.134;2022-07-23T02:59:29;10.95;;;9.05;;
51214;SDS011;41093;47.444;19.134;2022-07-23T03:01:55;10.38;;;9.30;;
51214;SDS011;41093;47.444;19.134;2022-07-23T03:04:21;10.27;;;9.05;;
51214;SDS011;41093;47.444;19.134;2022-07-23T03:06:47;9.80;;;8.88;;
51214;SDS011;41093;47.444;19.134;2022-07-23T03:09:12;12.60;;;9.75;;
51214;SDS011;41093;47.444;19.134;2022-07-23T03:11:38;10.55;;;9.35;;
51214;SDS011;41093;47.444;19.134;2022-07-23T03:14:04;9.93;;;8.95;;
51214;SDS011;41093;47.444;19.134;2022-07-23T03:16:31;9.98;;;8.45;;
51214;SDS011;41093;47.444;19.134;2022-07-23T03:18:57;10.13;;;9.05;;
51214;SDS011;41093;47.444;19.134;2022-07-23T03:21:22;11.48;;;8.50;;
51214;SDS011;41093;47.444;19.134;2022-07-23T03:23:48;9.40;;;8.32;;
51214;SDS011;41093;47.444;19.134;2022-07-23T03:26:14;9.13;;;8.38;;
51214;SDS011;41093;47.444;19.134;2022-07-23T03:28:39;9.90;;;8.50;;
51214;SDS011;41093;47.444;19.134;2022-07-23T03:31:05;8.75;;;7.85;;
51214;SDS011;41093;47.444;19.134;2022-07-23T03:33:31;9.43;;;8.63;;
51214;SDS011;41093;47.444;19.134;2022-07-23T03:35:57;11.38;;;8.40;;
51214;SDS011;41093;47.444;19.134;2022-07-23T03:38:22;11.10;;;8.43;;
51214;SDS011;41093;47.444;19.134;2022-07-23T03:40:48;11.02;;;8.20;;
51214;SDS011;41093;47.444;19.134;2022-07-23T03:43:14;9.32;;;8.27;;
51214;SDS011;41093;47.444;19.134;2022-07-23T03:45:39;9.88;;;8.07;;
51214;SDS011;41093;47.444;19.134;2022-07-23T03:48:05;10.60;;;7.50;;
51214;SDS011;41093;47.444;19.134;2022-07-23T03:50:31;9.63;;;7.72;;
51214;SDS011;41093;47.444;19.134;2022-07-23T03:52:57;9.40;;;8.40;;
51214;SDS011;41093;47.444;19.134;2022-07-23T03:55:22;10.00;;;7.70;;
51214;SDS011;41093;47.444;19.134;2022-07-23T03:57:48;9.52;;;7.72;;
51214;SDS011;41093;47.444;19.134;2022-07-23T04:00:14;9.60;;;8.18;;
51214;SDS011;41093;47.444;19.134;2022-07-23T04:02:40;9.60;;;7.68;;
51214;SDS011;41093;47.444;19.134;2022-07-23T04:05:06;9.85;;;8.07;;
51214;SDS011;41093;47.444;19.134;2022-07-23T04:07:32;8.23;;;6.82;;
51214;SDS011;41093;47.444;19.134;2022-07-23T04:09:58;8.20;;;7.05;;
51214;SDS011;41093;47.444;19.134;2022-07-23T04:12:23;7.85;;;7.03;;
51214;SDS011;41093;47.444;19.134;2022-07-23T04:14:49;7.85;;;7.07;;
51214;SDS011;41093;47.444;19.134;2022-07-23T04:17:15;7.40;;;6.70;;
51214;SDS011;41093;47.444;19.134;2022-07-23T04:19:41;7.72;;;7.00;;
51214;SDS011;41093;47.444;19.134;2022-07-23T04:22:09;6.70;;;6.10;;
51214;SDS011;41093;47.444;19.134;2022-07-23T04:24:36;9.05;;;6.72;;
51214;SDS011;41093;47.444;19.134;2022-07-23T04:27:02;8.43;;;6.40;;
51214;SDS011;41093;47.444;19.134;2022-07-23T04:29:28;6.43;;;5.72;;
51214;SDS011;41093;47.444;19.134;2022-07-23T04:31:54;11.27;;;7.22;;
51214;SDS011;41093;47.444;19.134;2022-07-23T04:34:20;8.50;;;6.68;;
51214;SDS011;41093;47.444;19.134;2022-07-23T04:36:45;7.40;;;6.32;;
51214;SDS011;41093;47.444;19.134;2022-07-23T04:39:11;10.57;;;6.78;;
51214;SDS011;41093;47.444;19.134;2022-07-23T04:41:37;10.20;;;7.22;;
51214;SDS011;41093;47.444;19.134;2022-07-23T04:44:03;10.20;;;6.93;;
51214;SDS011;41093;47.444;19.134;2022-07-23T04:46:29;8.38;;;6.57;;
51214;SDS011;41093;47.444;19.134;2022-07-23T04:48:55;9.18;;;6.10;;
51214;SDS011;41093;47.444;19.134;2022-07-23T04:51:21;8.18;;;5.90;;
51214;SDS011;41093;47.444;19.134;2022-07-23T04:53:46;6.82;;;6.22;;
51214;SDS011;41093;47.444;19.134;2022-07-23T04:56:12;11.27;;;6.45;;
51214;SDS011;41093;47.444;19.134;2022-07-23T04:58:38;8.25;;;6.75;;
51214;SDS011;41093;47.444;19.134;2022-07-23T05:01:04;12.35;;;6.75;;
51214;SDS011;41093;47.444;19.134;2022-07-23T05:03:30;15.20;;;7.25;;
51214;SDS011;41093;47.444;19.134;2022-07-23T05:05:56;7.32;;;6.57;;
51214;SDS011;41093;47.444;19.134;2022-07-23T05:08:22;8.38;;;6.50;;
51214;SDS011;41093;47.444;19.134;2022-07-23T05:10:48;7.13;;;6.47;;
51214;SDS011;41093;47.444;19.134;2022-07-23T05:13:14;6.57;;;5.70;;
51214;SDS011;41093;47.444;19.134;2022-07-23T05:15:41;8.52;;;6.13;;
51214;SDS011;41093;47.444;19.134;2022-07-23T05:18:07;11.93;;;5.80;;
51214;SDS011;41093;47.444;19.134;2022-07-23T05:20:33;9.02;;;5.82;;
51214;SDS011;41093;47.444;19.134;2022-07-23T05:22:59;6.10;;;5.47;;
51214;SDS011;41093;47.444;19.134;2022-07-23T05:25:25;6.15;;;5.53;;
51214;SDS011;41093;47.444;19.134;2022-07-23T05:27:50;6.72;;;5.50;;
51214;SDS011;41093;47.444;19.134;2022-07-23T05:30:16;5.85;;;5.13;;
51214;SDS011;41093;47.444;19.134;2022-07-23T05:32:42;11.88;;;6.10;;
51214;SDS011;41093;47.444;19.134;2022-07-23T05:35:08;8.93;;;5.57;;
51214;SDS011;41093;47.444;19.134;2022-07-23T05:37:34;7.05;;;5.50;;
51214;SDS011;41093;47.444;19.134;2022-07-23T05:40:03;5.95;;;5.38;;
51214;SDS011;41093;47.444;19.134;2022-07-23T05:42:34;9.15;;;5.53;;
51214;SDS011;41093;47.444;19.134;2022-07-23T05:45:00;6.70;;;4.97;;
51214;SDS011;41093;47.444;19.134;2022-07-23T05:47:26;6.85;;;4.95;;
51214;SDS011;41093;47.444;19.134;2022-07-23T05:49:52;7.25;;;5.90;;
51214;SDS011;41093;47.444;19.134;2022-07-23T05:52:18;8.32;;;6.10;;
51214;SDS011;41093;47.444;19.134;2022-07-23T05:54:44;8.32;;;5.75;;
51214;SDS011;41093;47.444;19.134;2022-07-23T05:57:09;9.55;;;5.38;;
51214;SDS011;41093;47.444;19.134;2022-07-23T05:59:35;9.27;;;5.00;;
51214;SDS011;41093;47.444;19.134;2022-07-23T06:02:01;7.22;;;5.15;;
51214;SDS011;41093;47.444;19.134;2022-07-23T06:04:27;6.82;;;5.20;;
51214;SDS011;41093;47.444;19.134;2022-07-23T06:06:52;8.30;;;5.38;;
51214;SDS011;41093;47.444;19.134;2022-07-23T06:09:18;8.10;;;5.13;;
51214;SDS011;41093;47.444;19.134;2022-07-23T06:11:44;5.82;;;5.25;;
51214;SDS011;41093;47.444;19.134;2022-07-23T06:14:09;8.77;;;5.47;;
51214;SDS011;41093;47.444;19.134;2022-07-23T06:16:35;7.10;;;5.07;;
51214;SDS011;41093;47.444;19.134;2022-07-23T06:19:01;6.80;;;5.57;;
51214;SDS011;41093;47.444;19.134;2022-07-23T06:21:27;6.00;;;5.35;;
51214;SDS011;41093;47.444;19.134;2022-07-23T06:23:53;6.13;;;5.38;;
51214;SDS011;41093;47.444;19.134;2022-07-23T06:26:19;5.97;;;5.38;;
51214;SDS011;41093;47.444;19.134;2022-07-23T06:28:45;5.70;;;5.20;;
51214;SDS011;41093;47.444;19.134;2022-07-23T06:31:11;6.22;;;5.63;;
51214;SDS011;41093;47.444;19.134;2022-07-23T06:33:36;7.50;;;5.93;;
51214;SDS011;41093;47.444;19.134;2022-07-23T06:36:02;6.78;;;5.43;;
51214;SDS011;41093;47.444;19.134;2022-07-23T06:38:28;7.00;;;5.75;;
51214;SDS011;41093;47.444;19.134;2022-07-23T06:40:54;7.07;;;5.07;;
51214;SDS011;41093;47.444;19.134;2022-07-23T06:43:19;8.35;;;5.90;;
51214;SDS011;41093;47.444;19.134;2022-07-23T06:45:45;8.60;;;5.50;;
51214;SDS011;41093;47.444;19.134;2022-07-23T06:48:11;7.97;;;6.25;;
51214;SDS011;41093;47.444;19.134;2022-07-23T06:50:36;7.95;;;5.70;;
51214;SDS011;41093;47.444;19.134;2022-07-23T06:53:02;7.57;;;5.70;;
51214;SDS011;41093;47.444;19.134;2022-07-23T06:55:28;7.78;;;6.28;;
51214;SDS011;41093;47.444;19.134;2022-07-23T06:57:54;8.40;;;6.25;;
51214;SDS011;41093;47.444;19.134;2022-07-23T07:00:19;6.63;;;6.10;;
51214;SDS011;41093;47.444;19.134;2022-07-23T07:02:45;7.20;;;6.40;;
51214;SDS011;41093;47.444;19.134;2022-07-23T07:05:11;6.47;;;6.00;;
51214;SDS011;41093;47.444;19.134;2022-07-23T07:07:37;7.53;;;6.68;;
51214;SDS011;41093;47.444;19.134;2022-07-23T07:10:03;7.07;;;6.30;;
51214;SDS011;41093;47.444;19.134;2022-07-23T07:12:29;6.80;;;6.25;;
51214;SDS011;41093;47.444;19.134;2022-07-23T07:14:54;7.43;;;6.85;;
51214;SDS011;41093;47.444;19.134;2022-07-23T07:17:20;9.68;;;7.80;;
51214;SDS011;41093;47.444;19.134;2022-07-23T07:19:46;8.35;;;7.47;;
51214;SDS011;41093;47.444;19.134;2022-07-23T07:22:11;8.07;;;7.35;;
51214;SDS011;41093;47.444;19.134;2022-07-23T07:24:37;8.60;;;7.93;;
51214;SDS011;41093;47.444;19.134;2022-07-23T07:27:03;9.77;;;7.90;;
51214;SDS011;41093;47.444;19.134;2022-07-23T07:29:29;10.25;;;8.90;;
51214;SDS011;41093;47.444;19.134;2022-07-23T07:31:54;9.85;;;9.18;;
51214;SDS011;41093;47.444;19.134;2022-07-23T07:34:20;9.90;;;9.10;;
51214;SDS011;41093;47.444;19.134;2022-07-23T07:36:46;11.23;;;10.20;;
51214;SDS011;41093;47.444;19.134;2022-07-23T07:39:12;11.07;;;9.98;;
51214;SDS011;41093;47.444;19.134;2022-07-23T07:41:37;10.63;;;9.73;;
51214;SDS011;41093;47.444;19.134;2022-07-23T07:44:03;10.70;;;9.90;;
51214;SDS011;41093;47.444;19.134;2022-07-23T07:46:29;9.85;;;8.95;;
51214;SDS011;41093;47.444;19.134;2022-07-23T07:48:55;9.68;;;8.88;;
51214;SDS011;41093;47.444;19.134;2022-07-23T07:51:21;11.13;;;9.05;;
51214;SDS011;41093;47.444;19.134;2022-07-23T07:53:47;10.18;;;9.18;;
51214;SDS011;41093;47.444;19.134;2022-07-23T07:56:12;9.80;;;9.20;;
51214;SDS011;41093;47.444;19.134;2022-07-23T07:58:38;10.90;;;9.82;;
51214;SDS011;41093;47.444;19.134;2022-07-23T08:01:04;10.38;;;9.57;;
51214;SDS011;41093;47.444;19.134;2022-07-23T08:03:30;10.80;;;10.00;;
51214;SDS011;41093;47.444;19.134;2022-07-23T08:05:56;11.30;;;10.60;;
51214;SDS011;41093;47.444;19.134;2022-07-23T08:08:22;11.32;;;10.63;;
51214;SDS011;41093;47.444;19.134;2022-07-23T08:10:47;12.93;;;12.00;;
51214;SDS011;41093;47.444;19.134;2022-07-23T08:13:14;13.45;;;12.65;;
51214;SDS011;41093;47.444;19.134;2022-07-23T08:15:41;14.95;;;13.90;;
51214;SDS011;41093;47.444;19.134;2022-07-23T08:18:07;15.32;;;14.32;;
51214;SDS011;41093;47.444;19.134;2022-07-23T08:20:32;14.77;;;13.77;;
51214;SDS011;41093;47.444;19.134;2022-07-23T08:23:00;13.15;;;12.27;;
51214;SDS011;41093;47.444;19.134;2022-07-23T08:25:32;12.73;;;11.75;;
51214;SDS011;41093;47.444;19.134;2022-07-23T08:28:03;12.45;;;11.70;;
51214;SDS011;41093;47.444;19.134;2022-07-23T08:30:30;13.98;;;13.18;;
51214;SDS011;41093;47.444;19.134;2022-07-23T08:33:01;13.95;;;13.10;;
51214;SDS011;41093;47.444;19.134;2022-07-23T08:35:35;14.25;;;13.25;;
51214;SDS011;41093;47.444;19.134;2022-07-23T08:38:06;12.90;;;12.00;;
51214;SDS011;41093;47.444;19.134;2022-07-23T08:40:35;13.82;;;13.02;;
51214;SDS011;41093;47.444;19.134;2022-07-23T08:43:06;14.63;;;13.73;;
51214;SDS011;41093;47.444;19.134;2022-07-23T08:45:37;16.02;;;14.80;;
51214;SDS011;41093;47.444;19.134;2022-07-23T08:48:05;16.38;;;15.48;;
51214;SDS011;41093;47.444;19.134;2022-07-23T08:50:47;15.55;;;14.45;;
51214;SDS011;41093;47.444;19.134;2022-07-23T08:53:16;15.68;;;14.77;;
51214;SDS011;41093;47.444;19.134;2022-07-23T08:55:47;15.27;;;14.10;;
51214;SDS011;41093;47.444;19.134;2022-07-23T08:58:14;15.30;;;14.50;;
51214;SDS011;41093;47.444;19.134;2022-07-23T09:00:42;16.55;;;15.48;;
51214;SDS011;41093;47.444;19.134;2022-07-23T09:03:15;16.20;;;15.27;;
51214;SDS011;41093;47.444;19.134;2022-07-23T09:05:45;16.05;;;15.20;;
51214;SDS011;41093;47.444;19.134;2022-07-23T09:08:21;15.45;;;14.60;;
51214;SDS011;41093;47.444;19.134;2022-07-23T09:10:59;14.43;;;13.40;;
51214;SDS011;41093;47.444;19.134;2022-07-23T09:16:07;14.80;;;13.65;;
51214;SDS011;41093;47.444;19.134;2022-07-23T09:18:42;13.85;;;13.15;;
51214;SDS011;41093;47.444;19.134;2022-07-23T09:21:19;15.05;;;14.18;;
51214;SDS011;41093;47.444;19.134;2022-07-23T09:23:50;15.77;;;14.75;;
51214;SDS011;41093;47.444;19.134;2022-07-23T09:26:24;15.13;;;14.32;;
51214;SDS011;41093;47.444;19.134;2022-07-23T09:29:12;15.13;;;14.32;;
51214;SDS011;41093;47.444;19.134;2022-07-23T09:31:53;13.60;;;13.00;;
51214;SDS011;41093;47.444;19.134;2022-07-23T09:36:51;12.80;;;12.10;;
51214;SDS011;41093;47.444;19.134;2022-07-23T09:39:32;12.00;;;11.32;;
51214;SDS011;41093;47.444;19.134;2022-07-23T09:42:12;11.02;;;10.25;;
51214;SDS011;41093;47.444;19.134;2022-07-23T09:44:41;12.85;;;11.95;;
51214;SDS011;41093;47.444;19.134;2022-07-23T09:47:09;10.55;;;9.95;;
51214;SDS011;41093;47.444;19.134;2022-07-23T09:49:34;12.40;;;11.60;;
51214;SDS011;41093;47.444;19.134;2022-07-23T09:52:00;12.88;;;12.05;;
51214;SDS011;41093;47.444;19.134;2022-07-23T09:57:02;11.88;;;11.00;;
51214;SDS011;41093;47.444;19.134;2022-07-23T09:59:31;10.98;;;10.23;;
51214;SDS011;41093;47.444;19.134;2022-07-23T10:01:58;11.27;;;10.55;;
51214;SDS011;41093;47.444;19.134;2022-07-23T10:04:26;10.82;;;9.93;;
51214;SDS011;41093;47.444;19.134;2022-07-23T10:06:54;9.75;;;8.90;;
51214;SDS011;41093;47.444;19.134;2022-07-23T10:09:23;9.70;;;9.00;;
51214;SDS011;41093;47.444;19.134;2022-07-23T10:11:51;9.73;;;8.90;;
51214;SDS011;41093;47.444;19.134;2022-07-23T10:16:47;8.32;;;7.82;;
51214;SDS011;41093;47.444;19.134;2022-07-23T10:19:13;8.65;;;7.95;;
51214;SDS011;41093;47.444;19.134;2022-07-23T10:24:12;7.55;;;6.95;;
51214;SDS011;41093;47.444;19.134;2022-07-23T10:26:43;7.43;;;7.00;;
51214;SDS011;41093;47.444;19.134;2022-07-23T10:29:26;7.47;;;6.95;;
51214;SDS011;41093;47.444;19.134;2022-07-23T10:32:08;7.10;;;6.40;;
51214;SDS011;41093;47.444;19.134;2022-07-23T10:37:43;6.10;;;5.60;;
51214;SDS011;41093;47.444;19.134;2022-07-23T10:40:18;23.15;;;7.63;;
51214;SDS011;41093;47.444;19.134;2022-07-23T10:42:48;8.77;;;5.47;;
51214;SDS011;41093;47.444;19.134;2022-07-23T10:47:48;8.45;;;5.47;;
51214;SDS011;41093;47.444;19.134;2022-07-23T10:53:09;5.47;;;5.07;;
51214;SDS011;41093;47.444;19.134;2022-07-23T10:55:50;5.22;;;4.72;;
51214;SDS011;41093;47.444;19.134;2022-07-23T10:58:19;5.07;;;4.68;;
51214;SDS011;41093;47.444;19.134;2022-07-23T11:00:46;5.88;;;5.00;;
51214;SDS011;41093;47.444;19.134;2022-07-23T11:03:29;5.35;;;4.90;;
51214;SDS011;41093;47.444;19.134;2022-07-23T11:06:01;7.38;;;5.30;;
51214;SDS011;41093;47.444;19.134;2022-07-23T11:08:27;5.63;;;4.78;;
51214;SDS011;41093;47.444;19.134;2022-07-23T11:11:14;5.30;;;4.88;;
51214;SDS011;41093;47.444;19.134;2022-07-23T11:13:45;7.25;;;4.90;;
51214;SDS011;41093;47.444;19.134;2022-07-23T11:16:13;5.82;;;4.93;;
51214;SDS011;41093;47.444;19.134;2022-07-23T11:26:44;6.30;;;5.07;;
51214;SDS011;41093;47.444;19.134;2022-07-23T11:32:03;7.65;;;4.90;;
51214;SDS011;41093;47.444;19.134;2022-07-23T11:34:40;5.68;;;5.18;;
51214;SDS011;41093;47.444;19.134;2022-07-23T11:37:08;6.10;;;5.20;;
51214;SDS011;41093;47.444;19.134;2022-07-23T11:39:36;7.40;;;5.28;;
51214;SDS011;41093;47.444;19.134;2022-07-23T11:42:03;5.82;;;5.32;;
51214;SDS011;41093;47.444;19.134;2022-07-23T11:44:35;6.45;;;5.57;;
51214;SDS011;41093;47.444;19.134;2022-07-23T11:47:04;7.73;;;5.57;;
51214;SDS011;41093;47.444;19.134;2022-07-23T11:49:31;6.72;;;5.28;;
51214;SDS011;41093;47.444;19.134;2022-07-23T11:52:07;5.63;;;5.22;;
51214;SDS011;41093;47.444;19.134;2022-07-23T11:54:37;6.15;;;5.53;;
51214;SDS011;41093;47.444;19.134;2022-07-23T11:57:13;6.18;;;5.57;;
51214;SDS011;41093;47.444;19.134;2022-07-23T11:59:39;7.32;;;5.15;;
51214;SDS011;41093;47.444;19.134;2022-07-23T12:02:07;6.90;;;5.35;;
51214;SDS011;41093;47.444;19.134;2022-07-23T12:04:40;5.90;;;5.20;;
51214;SDS011;41093;47.444;19.134;2022-07-23T12:09:59;4.90;;;4.50;;
51214;SDS011;41093;47.444;19.134;2022-07-23T12:12:49;8.57;;;6.05;;
51214;SDS011;41093;47.444;19.134;2022-07-23T12:15:24;9.50;;;5.30;;
51214;SDS011;41093;47.444;19.134;2022-07-23T12:17:51;6.63;;;5.30;;
51214;SDS011;41093;47.444;19.134;2022-07-23T12:20:20;6.22;;;5.30;;
51214;SDS011;41093;47.444;19.134;2022-07-23T12:22:49;7.07;;;5.45;;
51214;SDS011;41093;47.444;19.134;2022-07-23T12:25:18;5.60;;;4.68;;
51214;SDS011;41093;47.444;19.134;2022-07-23T12:27:45;5.85;;;5.45;;
51214;SDS011;41093;47.444;19.134;2022-07-23T12:32:50;5.70;;;4.97;;
51214;SDS011;41093;47.444;19.134;2022-07-23T12:35:21;6.20;;;5.50;;
51214;SDS011;41093;47.444;19.134;2022-07-23T12:37:48;7.03;;;5.10;;
51214;SDS011;41093;47.444;19.134;2022-07-23T12:40:30;5.40;;;5.00;;
51214;SDS011;41093;47.444;19.134;2022-07-23T12:43:05;11.77;;;5.13;;
51214;SDS011;41093;47.444;19.134;2022-07-23T12:45:46;5.43;;;4.93;;
51214;SDS011;41093;47.444;19.134;2022-07-23T12:53:23;9.85;;;4.88;;
51214;SDS011;41093;47.444;19.134;2022-07-23T12:55:57;5.65;;;5.00;;
51214;SDS011;41093;47.444;19.134;2022-07-23T12:58:50;8.02;;;5.28;;
51214;SDS011;41093;47.444;19.134;2022-07-23T13:04:01;5.15;;;4.65;;
51214;SDS011;41093;47.444;19.134;2022-07-23T13:07:00;5.78;;;4.85;;
51214;SDS011;41093;47.444;19.134;2022-07-23T13:09:27;4.90;;;4.50;;
51214;SDS011;41093;47.444;19.134;2022-07-23T13:11:55;7.88;;;5.20;;
51214;SDS011;41093;47.444;19.134;2022-07-23T13:14:22;7.05;;;5.18;;
51214;SDS011;41093;47.444;19.134;2022-07-23T13:16:49;6.38;;;5.07;;
51214;SDS011;41093;47.444;19.134;2022-07-23T13:19:17;5.28;;;4.88;;
51214;SDS011;41093;47.444;19.134;2022-07-23T13:21:43;6.35;;;5.15;;
51214;SDS011;41093;47.444;19.134;2022-07-23T13:24:09;5.97;;;5.45;;
51214;SDS011;41093;47.444;19.134;2022-07-23T13:26:36;9.02;;;5.25;;
51214;SDS011;41093;47.444;19.134;2022-07-23T13:29:03;6.05;;;5.00;;
51214;SDS011;41093;47.444;19.134;2022-07-23T13:31:29;5.75;;;4.90;;
51214;SDS011;41093;47.444;19.134;2022-07-23T13:33:55;6.95;;;5.78;;
51214;SDS011;41093;47.444;19.134;2022-07-23T13:36:21;5.57;;;5.03;;
51214;SDS011;41093;47.444;19.134;2022-07-23T13:38:47;6.07;;;5.28;;
51214;SDS011;41093;47.444;19.134;2022-07-23T13:41:12;6.18;;;5.43;;
51214;SDS011;41093;47.444;19.134;2022-07-23T13:43:41;6.07;;;5.25;;
51214;SDS011;41093;47.444;19.134;2022-07-23T13:46:07;5.90;;;5.32;;
51214;SDS011;41093;47.444;19.134;2022-07-23T13:48:33;5.78;;;5.32;;
51214;SDS011;41093;47.444;19.134;2022-07-23T13:50:59;5.68;;;5.15;;
51214;SDS011;41093;47.444;19.134;2022-07-23T13:53:24;6.22;;;5.10;;
51214;SDS011;41093;47.444;19.134;2022-07-23T13:55:51;6.05;;;5.55;;
51214;SDS011;41093;47.444;19.134;2022-07-23T13:58:19;5.65;;;5.25;;
51214;SDS011;41093;47.444;19.134;2022-07-23T14:00:47;5.75;;;4.97;;
51214;SDS011;41093;47.444;19.134;2022-07-23T14:03:14;9.05;;;5.80;;
51214;SDS011;41093;47.444;19.134;2022-07-23T14:05:41;6.05;;;5.47;;
51214;SDS011;41093;47.444;19.134;2022-07-23T14:08:07;5.43;;;4.95;;
51214;SDS011;41093;47.444;19.134;2022-07-23T14:10:33;6.18;;;5.57;;
51214;SDS011;41093;47.444;19.134;2022-07-23T14:12:59;8.68;;;5.78;;
51214;SDS011;41093;47.444;19.134;2022-07-23T14:15:25;7.07;;;5.78;;
51214;SDS011;41093;47.444;19.134;2022-07-23T14:17:53;6.25;;;4.95;;
51214;SDS011;41093;47.444;19.134;2022-07-23T14:20:20;6.32;;;5.30;;
51214;SDS011;41093;47.444;19.134;2022-07-23T14:22:46;5.93;;;5.53;;
51214;SDS011;41093;47.444;19.134;2022-07-23T14:25:12;6.20;;;4.72;;
51214;SDS011;41093;47.444;19.134;2022-07-23T14:27:38;6.65;;;5.20;;
51214;SDS011;41093;47.444;19.134;2022-07-23T14:30:05;7.13;;;5.18;;
51214;SDS011;41093;47.444;19.134;2022-07-23T14:32:32;7.55;;;5.40;;
51214;SDS011;41093;47.444;19.134;2022-07-23T14:34:57;6.63;;;5.10;;
51214;SDS011;41093;47.444;19.134;2022-07-23T14:37:23;6.97;;;5.85;;
51214;SDS011;41093;47.444;19.134;2022-07-23T14:39:50;5.68;;;5.07;;
51214;SDS011;41093;47.444;19.134;2022-07-23T14:42:16;9.95;;;5.65;;
51214;SDS011;41093;47.444;19.134;2022-07-23T14:44:43;5.60;;;5.10;;
51214;SDS011;41093;47.444;19.134;2022-07-23T14:47:09;6.45;;;5.85;;
51214;SDS011;41093;47.444;19.134;2022-07-23T14:49:35;5.43;;;4.90;;
51214;SDS011;41093;47.444;19.134;2022-07-23T14:52:01;5.20;;;4.75;;
51214;SDS011;41093;47.444;19.134;2022-07-23T14:54:28;6.93;;;5.20;;
51214;SDS011;41093;47.444;19.134;2022-07-23T14:56:55;8.02;;;5.15;;
51214;SDS011;41093;47.444;19.134;2022-07-23T14:59:21;5.30;;;4.80;;
51214;SDS011;41093;47.444;19.134;2022-07-23T15:01:47;5.20;;;4.70;;
51214;SDS011;41093;47.444;19.134;2022-07-23T15:04:13;5.18;;;4.78;;
51214;SDS011;41093;47.444;19.134;2022-07-23T15:06:39;4.88;;;4.57;;
51214;SDS011;41093;47.444;19.134;2022-07-23T15:09:06;5.80;;;5.05;;
51214;SDS011;41093;47.444;19.134;2022-07-23T15:11:31;5.53;;;5.13;;
51214;SDS011;41093;47.444;19.134;2022-07-23T15:14:03;6.00;;;5.38;;
51214;SDS011;41093;47.444;19.134;2022-07-23T15:16:29;8.55;;;5.88;;